Time;durP1;ratioP1;P1;durP2;ratioP2;P2;SDS_P1;SDS_P2;PMS_P1;PMS_P2;Temp;Humidity;BMP_temperature;BMP_pressure;BME280_temperature;BME280_humidity;BME280_pressure;Samples;Min_cycle;Max_cycle;Signal;HPM_P1;HPM_P2
2022/09/05 00:00:18;;;;;;;;;;;19.20;99.70;;;;;;4976847;28;19926;-84
2022/09/05 00:02:46;;;;;;;;;;;19.10;99.90;;;;;;4986438;28;19977;-80
2022/09/05 00:05:20;;;;;;;;;;;19.10;99.90;;;;;;5002699;28;19937;-81
2022/09/05 00:07:52;;;;;;;;;;;19.10;99.90;;;;;;4987268;28;19972;-80
2022/09/05 00:10:19;;;;;;;;;;;19.10;99.90;;;;;;4987825;28;19973;-82
2022/09/05 00:12:45;;;;;;;;;;;19.00;99.90;;;;;;4986732;28;19934;-79
2022/09/05 00:15:30;;;;;;;;;;;19.00;99.90;;;;;;4987099;28;20328;-81
2022/09/05 00:18:20;;;;;;;;;;;18.90;99.90;;;;;;4971947;28;19930;-82
2022/09/05 00:21:05;;;;;;;;;;;18.80;99.90;;;;;;4982630;28;19945;-86
2022/09/05 00:23:36;;;;;;;;;;;18.80;99.90;;;;;;4989191;28;19934;-83
2022/09/05 00:26:11;;;;;;;;;;;18.80;99.90;;;;;;4970638;28;20440;-83
2022/09/05 00:28:51;;;;;;;;;;;18.70;99.90;;;;;;4983887;28;19933;-81
2022/09/05 00:31:35;;;;;;;;;;;18.70;99.90;;;;;;4986731;28;19932;-85
2022/09/05 00:34:10;;;;;;;;;;;18.70;99.90;;;;;;4987502;28;19925;-82
2022/09/05 00:36:41;;;;;;;;;;;18.60;99.90;;;;;;4986998;28;19926;-82
2022/09/05 00:39:16;;;;;;;;;;;18.60;99.90;;;;;;4986635;28;19977;-81
2022/09/05 00:41:43;;;;;;;;;;;18.60;99.90;;;;;;4986806;28;20020;-81
2022/09/05 00:44:12;;;;;;;;;;;18.50;99.90;;;;;;4986142;28;19929;-81
2022/09/05 00:46:41;;;;;;;;;;;18.50;99.90;;;;;;4987480;28;20183;-82
2022/09/05 00:49:26;;;;;;;;;;;18.50;99.90;;;;;;4988043;28;19940;-80
2022/09/05 00:52:10;;;;;;;;;;;18.40;99.90;;;;;;4999888;28;19970;-82
2022/09/05 00:54:42;;;;;;;;;;;18.40;99.90;;;;;;4982096;28;20573;-81
2022/09/05 00:57:29;;;;;;;;;;;18.40;99.90;;;;;;5002124;28;20000;-81
2022/09/05 00:59:58;;;;;;;;;;;18.30;99.90;;;;;;5002344;28;20068;-80
2022/09/05 01:02:30;;;;;;;;;;;18.30;99.90;;;;;;4986347;28;20303;-81
2022/09/05 01:05:14;;;;;;;;;;;18.20;99.90;;;;;;4986701;28;20439;-80
2022/09/05 01:07:58;;;;;;;;;;;18.20;99.90;;;;;;4988973;28;19926;-81
2022/09/05 01:10:35;;;;;;;;;;;18.20;99.90;;;;;;5002667;28;19926;-81
2022/09/05 01:13:10;;;;;;;;;;;18.10;99.90;;;;;;4984921;28;19984;-81
2022/09/05 01:15:46;;;;;;;;;;;18.10;99.90;;;;;;4986161;28;19979;-82
2022/09/05 01:18:33;;;;;;;;;;;18.00;99.90;;;;;;4982846;28;19925;-81
2022/09/05 01:21:18;;;;;;;;;;;18.00;99.90;;;;;;4985130;28;19926;-83
2022/09/05 01:24:00;;;;;;;;;;;18.00;99.90;;;;;;4980718;28;19926;-81
2022/09/05 01:26:35;;;;;;;;;;;17.90;99.90;;;;;;4985605;28;20533;-82
2022/09/05 01:29:07;;;;;;;;;;;17.90;99.90;;;;;;5001783;28;20576;-82
2022/09/05 01:31:42;;;;;;;;;;;17.90;99.90;;;;;;4969389;28;19933;-81
2022/09/05 01:34:17;;;;;;;;;;;17.80;99.90;;;;;;4970588;28;19929;-82
2022/09/05 01:36:48;;;;;;;;;;;17.80;99.90;;;;;;4965058;28;19926;-81
2022/09/05 01:39:29;;;;;;;;;;;17.80;99.90;;;;;;4985324;28;19933;-82
2022/09/05 01:41:54;;;;;;;;;;;17.80;99.90;;;;;;5006239;28;19933;-83
2022/09/05 01:44:27;;;;;;;;;;;17.80;99.90;;;;;;4978430;28;22224;-84
2022/09/05 01:47:08;;;;;;;;;;;17.70;99.90;;;;;;5002605;28;20023;-81
2022/09/05 01:49:52;;;;;;;;;;;17.70;99.90;;;;;;4987411;28;19926;-82
2022/09/05 01:52:18;;;;;;;;;;;17.70;99.90;;;;;;5006704;28;20484;-81
2022/09/05 01:54:53;;;;;;;;;;;17.60;99.90;;;;;;4986351;28;19969;-80
2022/09/05 01:57:37;;;;;;;;;;;17.60;99.90;;;;;;5001113;28;19934;-85
2022/09/05 02:00:09;;;;;;;;;;;17.60;99.90;;;;;;4972188;28;20020;-83
2022/09/05 02:02:46;;;;;;;;;;;17.60;99.90;;;;;;4968740;28;20453;-81
2022/09/05 02:08:37;;;;;;;;;;;17.50;99.90;;;;;;5076233;23;20099;-80
2022/09/05 02:11:03;;;;;;;;;;;17.50;99.90;;;;;;4991540;28;20272;-83
2022/09/05 02:13:28;;;;;;;;;;;17.40;99.90;;;;;;4990935;28;19936;-81
2022/09/05 02:16:06;;;;;;;;;;;17.40;99.90;;;;;;4990034;28;19925;-83
2022/09/05 02:18:46;;;;;;;;;;;17.40;99.90;;;;;;5001060;28;19921;-81
2022/09/05 02:25:12;;;;;;;;;;;17.30;99.90;;;;;;5029816;28;19975;-84
2022/09/05 02:27:54;;;;;;;;;;;17.30;99.90;;;;;;5005470;28;19952;-79
2022/09/05 02:30:24;;;;;;;;;;;17.20;99.90;;;;;;4992221;28;19925;-80
2022/09/05 02:33:02;;;;;;;;;;;17.20;99.90;;;;;;4988293;28;19959;-84
2022/09/05 02:35:50;;;;;;;;;;;17.20;99.90;;;;;;5007477;28;20355;-82
2022/09/05 02:41:39;;;;;;;;;;;17.10;99.90;;;;;;5018563;28;19925;-82
2022/09/05 02:44:13;;;;;;;;;;;17.00;99.90;;;;;;5019387;28;20507;-84
2022/09/05 02:46:49;;;;;;;;;;;17.00;99.90;;;;;;4998384;28;19979;-81
2022/09/05 02:56:21;;;;;;;;;;;16.90;99.90;;;;;;4981870;28;19980;-81
2022/09/05 02:59:05;;;;;;;;;;;16.80;99.90;;;;;;4992153;28;20365;-81
2022/09/05 03:01:37;;;;;;;;;;;16.80;99.90;;;;;;5012047;28;20340;-84
2022/09/05 03:04:13;;;;;;;;;;;16.70;99.90;;;;;;5006987;28;19976;-81
2022/09/05 03:06:42;;;;;;;;;;;16.70;99.90;;;;;;5011271;28;19937;-82
2022/09/05 03:09:23;;;;;;;;;;;16.70;99.90;;;;;;5009722;28;19925;-83
2022/09/05 03:11:52;;;;;;;;;;;16.70;99.90;;;;;;5011140;28;19944;-83
2022/09/05 03:14:42;;;;;;;;;;;16.60;99.90;;;;;;5029691;28;20043;-82
2022/09/05 03:17:23;;;;;;;;;;;16.70;99.90;;;;;;5010476;28;20557;-80
2022/09/05 03:20:08;;;;;;;;;;;16.60;99.90;;;;;;5002337;28;19929;-82
2022/09/05 03:22:34;;;;;;;;;;;16.50;99.90;;;;;;4995133;28;19932;-80
2022/09/05 03:25:05;;;;;;;;;;;16.50;99.90;;;;;;5010910;28;19925;-82
2022/09/05 03:27:44;;;;;;;;;;;16.50;99.90;;;;;;5010109;28;19925;-81
2022/09/05 03:30:23;;;;;;;;;;;16.50;99.90;;;;;;4994393;28;20002;-85
2022/09/05 03:33:04;;;;;;;;;;;16.50;99.90;;;;;;5011226;28;19959;-82
2022/09/05 03:35:48;;;;;;;;;;;16.50;99.90;;;;;;5011468;28;20016;-81
2022/09/05 03:38:14;;;;;;;;;;;16.40;99.90;;;;;;5010601;28;19931;-81
2022/09/05 03:40:40;;;;;;;;;;;16.40;99.90;;;;;;4985298;28;19925;-80
2022/09/05 03:43:19;;;;;;;;;;;16.40;99.90;;;;;;5008651;28;19957;-83
2022/09/05 03:45:52;;;;;;;;;;;16.40;99.90;;;;;;4991444;28;19980;-81
2022/09/05 03:48:37;;;;;;;;;;;16.30;99.90;;;;;;4995041;28;19972;-83
2022/09/05 03:51:21;;;;;;;;;;;16.30;99.90;;;;;;5002855;28;19929;-81
2022/09/05 03:54:05;;;;;;;;;;;16.30;99.90;;;;;;4986631;28;19965;-83
2022/09/05 03:57:03;;;;;;;;;;;16.30;99.90;;;;;;5012204;28;19964;-83
2022/09/05 03:59:35;;;;;;;;;;;16.30;99.90;;;;;;4950248;28;19929;-83
2022/09/05 04:02:04;;;;;;;;;;;16.30;99.90;;;;;;4990188;28;19929;-81
2022/09/05 04:04:30;;;;;;;;;;;16.20;99.90;;;;;;4989128;28;19925;-82
2022/09/05 04:06:58;;;;;;;;;;;16.20;99.90;;;;;;4984968;28;19932;-84
2022/09/05 04:09:24;;;;;;;;;;;16.20;99.90;;;;;;4972638;28;19987;-82
2022/09/05 04:11:52;;;;;;;;;;;16.20;99.90;;;;;;5007200;28;19932;-82
2022/09/05 04:14:24;;;;;;;;;;;16.10;99.90;;;;;;4986871;28;19929;-83
2022/09/05 04:16:56;;;;;;;;;;;16.10;99.90;;;;;;5020052;28;19988;-84
2022/09/05 04:19:26;;;;;;;;;;;16.00;99.90;;;;;;4994426;28;20051;-84
2022/09/05 04:22:04;;;;;;;;;;;16.00;99.90;;;;;;4992951;28;19925;-82
2022/09/05 04:24:42;;;;;;;;;;;16.00;99.90;;;;;;5004273;28;19925;-84
2022/09/05 04:27:14;;;;;;;;;;;16.00;99.90;;;;;;5003775;28;19929;-83
2022/09/05 04:29:59;;;;;;;;;;;15.90;99.90;;;;;;4991205;28;20488;-83
2022/09/05 04:32:49;;;;;;;;;;;15.90;99.90;;;;;;5008683;28;19925;-84
2022/09/05 04:35:18;;;;;;;;;;;15.90;99.90;;;;;;4989334;28;19936;-82
2022/09/05 04:37:53;;;;;;;;;;;15.90;99.90;;;;;;5007943;28;19975;-81
2022/09/05 04:40:38;;;;;;;;;;;15.80;99.90;;;;;;5008061;28;20012;-81
2022/09/05 04:43:13;;;;;;;;;;;15.80;99.90;;;;;;4991930;28;20323;-82
2022/09/05 04:45:42;;;;;;;;;;;15.80;99.90;;;;;;5002687;28;20615;-81
2022/09/05 04:48:10;;;;;;;;;;;15.70;99.90;;;;;;4984492;28;20423;-85
2022/09/05 04:50:45;;;;;;;;;;;15.70;99.90;;;;;;4992728;28;20396;-81
2022/09/05 04:53:17;;;;;;;;;;;15.60;99.90;;;;;;5007881;28;20430;-83
2022/09/05 04:55:44;;;;;;;;;;;15.60;99.90;;;;;;4989336;28;20024;-83
2022/09/05 04:58:30;;;;;;;;;;;15.60;99.90;;;;;;4991938;28;20456;-83
2022/09/05 05:01:08;;;;;;;;;;;15.60;99.90;;;;;;5007619;28;20398;-84
2022/09/05 05:03:34;;;;;;;;;;;15.60;99.90;;;;;;4988307;28;19929;-87
2022/09/05 05:06:06;;;;;;;;;;;15.60;99.90;;;;;;4997316;28;19967;-82
2022/09/05 05:08:44;;;;;;;;;;;15.60;99.90;;;;;;5004981;28;19933;-83
2022/09/05 05:11:23;;;;;;;;;;;15.50;99.90;;;;;;5006919;28;19925;-84
2022/09/05 05:13:57;;;;;;;;;;;15.60;99.90;;;;;;4986300;28;20506;-81
2022/09/05 05:16:24;;;;;;;;;;;15.60;99.90;;;;;;4990339;28;19925;-84
2022/09/05 05:18:54;;;;;;;;;;;15.50;99.90;;;;;;4998823;28;19933;-82
2022/09/05 05:21:21;;;;;;;;;;;15.50;99.90;;;;;;5023035;28;20150;-80
2022/09/05 05:23:47;;;;;;;;;;;15.50;99.90;;;;;;5019334;28;19926;-83
2022/09/05 05:26:39;;;;;;;;;;;15.50;99.90;;;;;;4997652;28;19925;-81
2022/09/05 05:29:05;;;;;;;;;;;15.50;99.90;;;;;;4999993;28;19949;-82
2022/09/05 05:31:32;;;;;;;;;;;15.50;99.90;;;;;;5003022;28;20503;-83
2022/09/05 05:34:02;;;;;;;;;;;15.40;99.90;;;;;;5001390;28;19944;-81
2022/09/05 05:36:33;;;;;;;;;;;15.50;99.90;;;;;;4984272;28;19951;-84
2022/09/05 05:39:15;;;;;;;;;;;15.50;99.90;;;;;;4991083;28;19933;-82
2022/09/05 05:41:48;;;;;;;;;;;15.50;99.90;;;;;;4989305;28;20399;-80
2022/09/05 05:44:15;;;;;;;;;;;15.50;99.90;;;;;;4990436;28;19955;-80
2022/09/05 05:47:04;;;;;;;;;;;15.50;99.90;;;;;;4991614;28;19986;-79
2022/09/05 05:49:56;;;;;;;;;;;15.60;99.90;;;;;;4968777;28;19926;-81
2022/09/05 05:52:33;;;;;;;;;;;15.60;99.90;;;;;;5005744;28;19925;-84
2022/09/05 05:55:04;;;;;;;;;;;15.70;99.90;;;;;;4987286;28;19985;-82
2022/09/05 05:57:36;;;;;;;;;;;15.70;99.90;;;;;;4989345;28;20056;-80
2022/09/05 06:00:01;;;;;;;;;;;15.80;99.90;;;;;;5006047;28;19932;-81
2022/09/05 06:02:40;;;;;;;;;;;15.80;99.90;;;;;;5008239;28;19929;-81
2022/09/05 06:05:15;;;;;;;;;;;15.90;99.90;;;;;;5007825;28;20002;-80
2022/09/05 06:07:53;;;;;;;;;;;15.90;99.90;;;;;;5002839;28;19955;-80
2022/09/05 06:10:37;;;;;;;;;;;16.00;99.90;;;;;;4989115;28;19986;-83
2022/09/05 06:13:22;;;;;;;;;;;16.10;99.90;;;;;;4994367;28;19976;-83
2022/09/05 06:15:55;;;;;;;;;;;16.20;99.90;;;;;;5004386;28;19925;-82
2022/09/05 06:18:30;;;;;;;;;;;16.30;99.90;;;;;;5005437;28;19926;-81
2022/09/05 06:21:15;;;;;;;;;;;16.40;99.90;;;;;;4984494;28;19926;-79
2022/09/05 06:23:48;;;;;;;;;;;16.60;99.90;;;;;;5005689;28;20007;-84
2022/09/05 06:26:14;;;;;;;;;;;16.60;99.90;;;;;;4988105;28;19929;-81
2022/09/05 06:29:00;;;;;;;;;;;16.80;99.90;;;;;;4999532;28;20403;-82
2022/09/05 06:31:33;;;;;;;;;;;16.90;99.90;;;;;;4991126;28;19932;-79
2022/09/05 06:34:03;;;;;;;;;;;17.00;99.90;;;;;;5001463;28;19929;-86
2022/09/05 06:36:48;;;;;;;;;;;17.10;99.90;;;;;;4981346;28;19929;-85
2022/09/05 06:39:32;;;;;;;;;;;17.10;99.90;;;;;;4993654;28;19929;-85
2022/09/05 06:41:58;;;;;;;;;;;17.20;99.90;;;;;;4993156;28;19929;-84
2022/09/05 06:44:36;;;;;;;;;;;17.30;99.90;;;;;;5007229;28;19931;-78
2022/09/05 06:47:18;;;;;;;;;;;17.40;99.90;;;;;;4992965;28;19925;-84
2022/09/05 06:49:57;;;;;;;;;;;17.50;99.90;;;;;;4987400;28;19971;-81
2022/09/05 06:52:32;;;;;;;;;;;17.70;99.90;;;;;;5005040;28;20570;-82
2022/09/05 06:55:11;;;;;;;;;;;17.80;99.90;;;;;;4992516;28;19929;-83
2022/09/05 06:57:55;;;;;;;;;;;17.90;99.90;;;;;;5001921;28;19930;-79
2022/09/05 07:00:22;;;;;;;;;;;18.10;99.90;;;;;;5004447;28;19925;-81
2022/09/05 07:02:58;;;;;;;;;;;18.20;99.90;;;;;;4992911;28;20386;-81
2022/09/05 07:05:32;;;;;;;;;;;18.40;99.90;;;;;;5006997;28;19972;-82
2022/09/05 07:08:17;;;;;;;;;;;18.50;99.90;;;;;;4988249;28;20289;-79
2022/09/05 07:10:47;;;;;;;;;;;18.70;99.90;;;;;;5001425;28;19968;-79
2022/09/05 07:13:19;;;;;;;;;;;18.90;99.90;;;;;;4995405;28;19925;-80
2022/09/05 07:15:52;;;;;;;;;;;19.20;99.90;;;;;;4999957;28;19926;-81
2022/09/05 07:18:36;;;;;;;;;;;19.60;99.90;;;;;;5001658;28;19925;-81
2022/09/05 07:21:08;;;;;;;;;;;19.70;99.90;;;;;;4985486;28;19925;-81
2022/09/05 07:23:44;;;;;;;;;;;19.70;99.90;;;;;;5004828;28;19987;-79
2022/09/05 07:26:11;;;;;;;;;;;19.80;99.90;;;;;;4981960;28;19996;-79
2022/09/05 07:28:41;;;;;;;;;;;19.90;99.90;;;;;;4988106;28;19925;-80
2022/09/05 07:31:13;;;;;;;;;;;20.10;99.90;;;;;;5003566;28;20012;-80
2022/09/05 07:33:39;;;;;;;;;;;20.40;99.90;;;;;;4995938;28;20005;-83
2022/09/05 07:36:07;;;;;;;;;;;20.90;99.90;;;;;;4970562;28;20003;-80
2022/09/05 07:38:35;;;;;;;;;;;22.00;99.90;;;;;;4991923;28;19969;-78
2022/09/05 07:41:19;;;;;;;;;;;22.90;99.90;;;;;;4990188;28;20527;-78
2022/09/05 07:43:47;;;;;;;;;;;24.10;99.90;;;;;;4990684;28;20340;-79
2022/09/05 07:46:13;;;;;;;;;;;24.30;99.90;;;;;;5006779;28;19925;-78
2022/09/05 07:48:59;;;;;;;;;;;24.70;99.90;;;;;;5008944;28;20480;-78
2022/09/05 07:51:36;;;;;;;;;;;25.10;99.60;;;;;;4996835;28;19925;-84
2022/09/05 07:54:23;;;;;;;;;;;25.70;96.70;;;;;;5007958;28;19926;-83
2022/09/05 07:56:49;;;;;;;;;;;26.20;95.90;;;;;;4994226;28;19930;-80
2022/09/05 07:59:16;;;;;;;;;;;26.50;94.10;;;;;;5005904;28;19936;-78
2022/09/05 08:01:47;;;;;;;;;;;26.50;93.40;;;;;;5009192;28;19926;-78
2022/09/05 08:04:23;;;;;;;;;;;26.40;93.30;;;;;;5007884;28;20020;-81
2022/09/05 08:06:51;;;;;;;;;;;26.30;91.60;;;;;;4987155;28;19933;-81
2022/09/05 08:09:37;;;;;;;;;;;26.70;92.60;;;;;;4992917;28;19925;-82
2022/09/05 08:12:10;;;;;;;;;;;27.10;92.00;;;;;;5002577;28;19926;-81
2022/09/05 08:14:38;;;;;;;;;;;;;;;;;;5006050;28;20303;-83
2022/09/05 08:17:06;;;;;;;;;;;28.20;88.40;;;;;;5002212;28;20410;-80
2022/09/05 08:19:34;;;;;;;;;;;28.60;89.90;;;;;;5005301;28;19929;-81
2022/09/05 08:22:02;;;;;;;;;;;28.60;85.90;;;;;;4989858;28;19926;-80
2022/09/05 08:24:27;;;;;;;;;;;28.70;84.10;;;;;;4974396;28;19961;-81
2022/09/05 08:27:02;;;;;;;;;;;28.90;85.30;;;;;;5001436;28;20369;-79
2022/09/05 08:29:34;;;;;;;;;;;28.90;84.40;;;;;;4986720;28;19929;-78
2022/09/05 08:32:07;;;;;;;;;;;28.90;84.50;;;;;;5005946;28;19926;-79
2022/09/05 08:34:52;;;;;;;;;;;28.80;82.90;;;;;;4990666;28;19934;-80
2022/09/05 08:37:24;;;;;;;;;;;28.50;86.70;;;;;;5006668;28;19948;-80
2022/09/05 08:39:56;;;;;;;;;;;28.00;84.00;;;;;;5008084;28;20359;-86
2022/09/05 08:42:25;;;;;;;;;;;27.80;84.70;;;;;;5006139;28;20071;-80
2022/09/05 08:45:18;;;;;;;;;;;27.50;84.30;;;;;;4988524;28;19929;-80
2022/09/05 08:48:05;;;;;;;;;;;27.20;85.90;;;;;;4987431;28;19925;-81
2022/09/05 08:50:46;;;;;;;;;;;26.60;85.50;;;;;;4957075;28;20679;-79
2022/09/05 08:53:16;;;;;;;;;;;26.20;87.60;;;;;;4991835;28;19925;-80
2022/09/05 08:56:03;;;;;;;;;;;25.90;88.50;;;;;;4992636;28;19933;-91
2022/09/05 08:58:42;;;;;;;;;;;25.70;90.30;;;;;;4988254;28;19933;-84
2022/09/05 09:01:20;;;;;;;;;;;25.50;89.70;;;;;;5004040;28;20491;-85
2022/09/05 09:04:02;;;;;;;;;;;25.40;90.60;;;;;;5006073;28;19942;-78
2022/09/05 09:06:39;;;;;;;;;;;25.30;91.00;;;;;;4989740;28;19929;-81
2022/09/05 09:09:08;;;;;;;;;;;25.10;90.20;;;;;;4989914;28;20384;-78
2022/09/05 09:11:55;;;;;;;;;;;25.20;90.50;;;;;;5000479;28;20412;-78
2022/09/05 09:14:26;;;;;;;;;;;25.20;90.60;;;;;;4985061;28;20542;-77
2022/09/05 09:16:52;;;;;;;;;;;25.20;90.50;;;;;;4988500;28;19989;-78
2022/09/05 09:19:30;;;;;;;;;;;25.30;90.80;;;;;;5004552;28;19925;-77
2022/09/05 09:22:06;;;;;;;;;;;25.50;90.80;;;;;;5002911;28;19953;-78
2022/09/05 09:24:32;;;;;;;;;;;25.80;91.10;;;;;;4989644;28;20118;-80
2022/09/05 09:27:08;;;;;;;;;;;25.90;90.50;;;;;;5004910;28;19931;-79
2022/09/05 09:29:37;;;;;;;;;;;26.00;90.00;;;;;;4984787;28;19926;-78
2022/09/05 09:32:06;;;;;;;;;;;26.10;90.30;;;;;;4991783;28;20644;-78
2022/09/05 09:34:39;;;;;;;;;;;26.20;90.50;;;;;;4997709;28;19925;-79
2022/09/05 09:37:23;;;;;;;;;;;26.40;89.90;;;;;;5006197;28;19956;-81
2022/09/05 09:40:04;;;;;;;;;;;26.60;90.00;;;;;;4989118;28;19968;-80
2022/09/05 09:42:50;;;;;;;;;;;26.70;89.60;;;;;;4998723;28;19933;-81
2022/09/05 09:45:34;;;;;;;;;;;26.80;89.00;;;;;;4982703;28;20222;-79
2022/09/05 09:48:06;;;;;;;;;;;26.90;89.40;;;;;;5004418;28;20032;-80
2022/09/05 09:50:51;;;;;;;;;;;26.90;88.60;;;;;;5005814;28;19925;-80
2022/09/05 09:53:30;;;;;;;;;;;26.90;88.80;;;;;;4989502;28;19933;-78
2022/09/05 09:56:08;;;;;;;;;;;27.00;87.80;;;;;;5004630;28;20373;-81
2022/09/05 09:58:40;;;;;;;;;;;27.10;88.20;;;;;;4981832;28;19929;-79
2022/09/05 10:01:20;;;;;;;;;;;27.30;88.70;;;;;;5004709;28;19925;-80
2022/09/05 10:04:10;;;;;;;;;;;27.50;88.80;;;;;;4985663;28;19941;-79
2022/09/05 10:06:42;;;;;;;;;;;27.60;86.40;;;;;;4988896;28;19925;-80
2022/09/05 10:09:20;;;;;;;;;;;27.60;87.70;;;;;;5004423;28;19932;-79
2022/09/05 10:11:49;;;;;;;;;;;27.70;86.80;;;;;;5004776;28;19932;-81
2022/09/05 10:14:33;;;;;;;;;;;27.70;85.40;;;;;;5005183;28;19929;-80
2022/09/05 10:17:02;;;;;;;;;;;27.80;86.70;;;;;;5005566;28;19934;-80
2022/09/05 10:19:47;;;;;;;;;;;27.50;86.50;;;;;;5004518;28;19925;-80
2022/09/05 10:22:13;;;;;;;;;;;27.50;85.70;;;;;;4983946;28;20513;-79
2022/09/05 10:24:57;;;;;;;;;;;27.70;85.20;;;;;;4983063;28;19937;-83
2022/09/05 10:27:43;;;;;;;;;;;27.60;85.10;;;;;;4982562;28;20523;-82
2022/09/05 10:30:15;;;;;;;;;;;27.70;85.00;;;;;;4955659;28;20431;-82
2022/09/05 10:32:44;;;;;;;;;;;27.80;85.20;;;;;;5005516;28;20325;-80
2022/09/05 10:35:16;;;;;;;;;;;27.80;85.90;;;;;;4990159;28;20515;-80
2022/09/05 10:38:12;;;;;;;;;;;27.80;84.50;;;;;;4988308;28;19929;-87
2022/09/05 10:40:42;;;;;;;;;;;27.90;84.40;;;;;;4991058;28;19925;-89
2022/09/05 10:43:21;;;;;;;;;;;28.20;84.80;;;;;;4989135;28;20008;-81
2022/09/05 10:45:59;;;;;;;;;;;28.30;84.20;;;;;;4987245;28;20044;-87
2022/09/05 10:48:47;;;;;;;;;;;28.50;83.80;;;;;;4996981;28;19952;-87
2022/09/05 10:51:33;;;;;;;;;;;28.60;82.60;;;;;;5001429;28;19979;-88
2022/09/05 10:54:17;;;;;;;;;;;28.60;82.70;;;;;;5008630;28;19933;-88
2022/09/05 10:56:52;;;;;;;;;;;28.70;81.80;;;;;;4996420;28;19948;-87
2022/09/05 10:59:38;;;;;;;;;;;28.70;81.30;;;;;;4990119;28;19930;-88
2022/09/05 11:02:25;;;;;;;;;;;28.90;82.60;;;;;;4989378;28;20033;-86
2022/09/05 11:04:57;;;;;;;;;;;28.70;80.60;;;;;;4991953;28;19926;-85
2022/09/05 11:07:34;;;;;;;;;;;28.90;80.60;;;;;;4991485;28;19930;-86
2022/09/05 11:09:59;;;;;;;;;;;29.00;80.50;;;;;;5007475;28;19929;-84
2022/09/05 11:12:28;;;;;;;;;;;29.10;81.60;;;;;;5014610;28;20384;-87
2022/09/05 11:14:56;;;;;;;;;;;29.10;79.30;;;;;;4997528;28;20034;-86
2022/09/05 11:17:21;;;;;;;;;;;29.20;79.80;;;;;;5014708;28;19925;-89
2022/09/05 11:19:58;;;;;;;;;;;29.30;80.10;;;;;;5005627;28;19925;-87
2022/09/05 11:22:27;;;;;;;;;;;29.40;79.50;;;;;;5014034;28;19932;-90
2022/09/05 11:24:58;;;;;;;;;;;29.40;78.20;;;;;;5009540;28;19933;-92
2022/09/05 11:27:32;;;;;;;;;;;29.50;77.70;;;;;;5010394;28;19929;-87
2022/09/05 11:30:04;;;;;;;;;;;29.50;78.00;;;;;;4997991;28;20004;-83
2022/09/05 11:32:49;;;;;;;;;;;29.60;78.50;;;;;;5014221;28;20032;-90
2022/09/05 11:35:28;;;;;;;;;;;29.60;78.20;;;;;;4994938;28;20376;-84
2022/09/05 11:37:59;;;;;;;;;;;29.50;77.10;;;;;;4999630;28;20008;-88
2022/09/05 11:40:32;;;;;;;;;;;29.40;77.50;;;;;;5018372;28;19974;-85
2022/09/05 11:43:34;;;;;;;;;;;29.40;78.70;;;;;;4995447;28;19978;-83
2022/09/05 11:46:00;;;;;;;;;;;29.50;77.00;;;;;;4932068;29;20382;-88
2022/09/05 11:48:35;;;;;;;;;;;29.50;76.80;;;;;;4991726;28;20411;-87
2022/09/05 11:51:10;;;;;;;;;;;29.50;77.30;;;;;;5014061;28;19937;-82
2022/09/05 11:53:42;;;;;;;;;;;29.40;77.80;;;;;;4998075;28;19932;-81
2022/09/05 11:56:19;;;;;;;;;;;29.40;77.10;;;;;;4997203;28;19936;-85
2022/09/05 11:58:57;;;;;;;;;;;29.60;77.40;;;;;;5008268;28;19964;-91
2022/09/05 12:01:32;;;;;;;;;;;29.70;76.60;;;;;;5014394;28;20040;-86
2022/09/05 12:04:07;;;;;;;;;;;29.70;75.60;;;;;;4997953;28;19925;-91
2022/09/05 12:06:41;;;;;;;;;;;29.70;76.60;;;;;;5013486;28;19933;-87
2022/09/05 12:09:26;;;;;;;;;;;29.70;76.20;;;;;;4996539;28;19925;-84
2022/09/05 12:12:15;;;;;;;;;;;29.60;75.30;;;;;;4990918;28;20407;-91
2022/09/05 12:14:41;;;;;;;;;;;29.50;76.20;;;;;;4996003;28;19931;-84
2022/09/05 12:17:41;;;;;;;;;;;29.40;76.80;;;;;;4994394;28;20547;-90
2022/09/05 12:20:33;;;;;;;;;;;29.40;76.20;;;;;;4961647;28;19933;-86
2022/09/05 12:23:25;;;;;;;;;;;29.50;76.50;;;;;;5002815;28;19925;-82
2022/09/05 12:25:56;;;;;;;;;;;29.50;76.10;;;;;;4984659;28;20574;-81
2022/09/05 12:28:30;;;;;;;;;;;29.60;75.70;;;;;;5009005;28;20027;-82
2022/09/05 12:31:18;;;;;;;;;;;29.70;76.40;;;;;;4990417;28;19979;-88
2022/09/05 12:33:50;;;;;;;;;;;29.60;76.40;;;;;;5001521;28;19929;-84
2022/09/05 12:36:38;;;;;;;;;;;29.50;75.60;;;;;;5002112;28;20022;-88
2022/09/05 12:39:17;;;;;;;;;;;29.50;76.40;;;;;;4989686;28;19926;-82
2022/09/05 12:41:56;;;;;;;;;;;29.50;75.50;;;;;;5009207;28;19933;-84
2022/09/05 12:44:25;;;;;;;;;;;29.50;76.20;;;;;;5009796;28;19925;-87
2022/09/05 12:46:56;;;;;;;;;;;29.40;76.00;;;;;;5010261;28;19932;-86
2022/09/05 12:49:29;;;;;;;;;;;29.40;75.90;;;;;;5005831;28;19925;-83
2022/09/05 12:52:01;;;;;;;;;;;29.40;76.00;;;;;;4994224;28;20288;-81
2022/09/05 12:54:32;;;;;;;;;;;29.30;75.10;;;;;;5005071;28;19925;-84
2022/09/05 12:57:04;;;;;;;;;;;29.20;74.90;;;;;;4992967;28;20024;-81
2022/09/05 12:59:34;;;;;;;;;;;29.20;76.30;;;;;;5002645;28;19936;-82
2022/09/05 13:02:02;;;;;;;;;;;29.20;75.40;;;;;;4986162;28;19968;-84
2022/09/05 13:04:37;;;;;;;;;;;29.10;75.00;;;;;;5005928;28;19933;-84
2022/09/05 13:07:08;;;;;;;;;;;29.10;75.10;;;;;;5004181;28;20558;-83
2022/09/05 13:09:40;;;;;;;;;;;29.10;75.80;;;;;;5004681;28;20052;-85
2022/09/05 13:12:17;;;;;;;;;;;29.00;75.30;;;;;;4985008;28;20442;-83
2022/09/05 13:14:43;;;;;;;;;;;29.00;75.70;;;;;;4999686;28;19926;-84
2022/09/05 13:17:12;;;;;;;;;;;29.00;76.90;;;;;;4997392;28;19933;-86
2022/09/05 13:19:44;;;;;;;;;;;29.00;75.50;;;;;;5002313;28;19929;-85
2022/09/05 13:22:13;;;;;;;;;;;28.90;75.90;;;;;;5003204;28;20691;-84
2022/09/05 13:24:43;;;;;;;;;;;29.00;75.90;;;;;;5002825;28;19979;-83
2022/09/05 13:27:14;;;;;;;;;;;29.00;75.80;;;;;;4987816;28;19976;-85
2022/09/05 13:29:55;;;;;;;;;;;29.00;74.40;;;;;;4971666;28;19929;-91
2022/09/05 13:32:36;;;;;;;;;;;29.00;75.20;;;;;;4986794;28;19926;-85
2022/09/05 13:35:26;;;;;;;;;;;29.00;74.50;;;;;;4993738;28;20004;-84
2022/09/05 13:38:01;;;;;;;;;;;29.00;74.10;;;;;;4980771;28;19934;-86
2022/09/05 13:40:35;;;;;;;;;;;28.90;75.00;;;;;;4992416;28;20019;-87
2022/09/05 13:43:09;;;;;;;;;;;28.90;74.50;;;;;;4985749;28;19950;-86
2022/09/05 13:46:02;;;;;;;;;;;28.90;74.30;;;;;;4981051;28;20020;-80
2022/09/05 13:48:33;;;;;;;;;;;29.00;74.90;;;;;;5001152;28;20404;-86
2022/09/05 13:51:06;;;;;;;;;;;29.00;74.70;;;;;;4982918;28;20250;-84
2022/09/05 13:53:35;;;;;;;;;;;29.00;74.10;;;;;;4998700;28;19980;-81
2022/09/05 13:56:13;;;;;;;;;;;29.00;74.40;;;;;;4987207;28;19926;-81
2022/09/05 13:58:44;;;;;;;;;;;28.90;73.50;;;;;;4997863;28;19929;-84
2022/09/05 14:01:29;;;;;;;;;;;28.80;74.00;;;;;;5002691;28;20063;-82
2022/09/05 14:03:55;;;;;;;;;;;28.80;73.40;;;;;;4987007;28;20393;-82
2022/09/05 14:06:46;;;;;;;;;;;28.70;74.70;;;;;;4988130;28;19925;-86
2022/09/05 14:09:18;;;;;;;;;;;28.70;74.80;;;;;;4986701;28;19925;-84
2022/09/05 14:11:54;;;;;;;;;;;28.60;74.20;;;;;;4995356;28;20013;-83
2022/09/05 14:14:38;;;;;;;;;;;28.50;74.50;;;;;;4980473;28;19956;-78
2022/09/05 14:17:08;;;;;;;;;;;28.40;75.00;;;;;;4984230;28;19921;-78
2022/09/05 14:22:43;;;;;;;;;;;28.20;74.90;;;;;;5002776;28;19921;-78
2022/09/05 14:25:13;;;;;;;;;;;28.10;75.10;;;;;;4989527;28;20019;-79
2022/09/05 14:27:43;;;;;;;;;;;28.10;76.00;;;;;;5003937;28;20380;-79
2022/09/05 14:30:29;;;;;;;;;;;28.10;75.60;;;;;;4995217;28;19940;-79
2022/09/05 14:33:24;;;;;;;;;;;28.10;76.20;;;;;;4989572;28;19945;-80
2022/09/05 14:35:56;;;;;;;;;;;28.20;75.30;;;;;;4984073;28;19995;-77
2022/09/05 14:38:50;;;;;;;;;;;28.20;74.80;;;;;;4978359;28;19980;-77
2022/09/05 14:41:25;;;;;;;;;;;28.30;75.40;;;;;;4984593;28;20265;-82
2022/09/05 14:43:58;;;;;;;;;;;28.30;74.80;;;;;;4987647;28;19979;-86
2022/09/05 14:46:38;;;;;;;;;;;28.30;74.30;;;;;;4989875;28;19952;-79
2022/09/05 14:49:16;;;;;;;;;;;28.20;74.80;;;;;;4989506;28;19955;-84
2022/09/05 14:51:46;;;;;;;;;;;28.10;73.80;;;;;;5005811;28;19941;-79
2022/09/05 14:54:18;;;;;;;;;;;28.10;75.30;;;;;;4999118;28;19931;-79
2022/09/05 14:56:48;;;;;;;;;;;28.10;74.40;;;;;;5004665;28;19932;-85
2022/09/05 14:59:20;;;;;;;;;;;28.00;74.50;;;;;;4983221;28;20424;-82
2022/09/05 15:01:47;;;;;;;;;;;28.00;74.80;;;;;;5003556;28;20004;-84
2022/09/05 15:04:14;;;;;;;;;;;27.90;74.40;;;;;;4992283;28;19933;-78
2022/09/05 15:06:39;;;;;;;;;;;27.90;74.50;;;;;;4989428;28;19929;-84
2022/09/05 15:09:07;;;;;;;;;;;27.90;74.30;;;;;;4992982;28;20293;-84
2022/09/05 15:11:34;;;;;;;;;;;27.90;74.70;;;;;;4990577;28;19953;-79
2022/09/05 15:14:10;;;;;;;;;;;27.80;74.20;;;;;;4988754;28;19926;-82
2022/09/05 15:16:42;;;;;;;;;;;27.80;74.60;;;;;;5001006;28;19979;-79
2022/09/05 15:19:08;;;;;;;;;;;27.90;74.90;;;;;;4996189;28;20016;-80
2022/09/05 15:21:36;;;;;;;;;;;27.80;75.60;;;;;;5004319;28;19929;-84
2022/09/05 15:24:23;;;;;;;;;;;27.80;75.40;;;;;;4987956;28;19925;-81
2022/09/05 15:26:50;;;;;;;;;;;27.70;75.90;;;;;;4999212;28;19948;-85